sensor_id;sensor_type;location;lat;lon;timestamp;P1;durP1;ratioP1;P2;durP2;ratioP2
75427;SDS011;64008;55.612;37.698;2023-04-06T00:02:20;7.45;;;2.40;;
75427;SDS011;64008;55.612;37.698;2023-04-06T00:04:45;7.55;;;2.17;;
75427;SDS011;64008;55.612;37.698;2023-04-06T00:07:11;5.85;;;2.05;;
75427;SDS011;64008;55.612;37.698;2023-04-06T00:09:36;4.57;;;1.85;;
75427;SDS011;64008;55.612;37.698;2023-04-06T00:12:02;5.07;;;1.83;;
75427;SDS011;64008;55.612;37.698;2023-04-06T00:14:28;4.82;;;2.00;;
75427;SDS011;64008;55.612;37.698;2023-04-06T00:16:53;4.68;;;1.95;;
75427;SDS011;64008;55.612;37.698;2023-04-06T00:19:19;4.63;;;1.92;;
75427;SDS011;64008;55.612;37.698;2023-04-06T00:21:44;6.38;;;2.20;;
75427;SDS011;64008;55.612;37.698;2023-04-06T00:24:10;5.80;;;2.20;;
75427;SDS011;64008;55.612;37.698;2023-04-06T00:26:36;5.45;;;2.10;;
75427;SDS011;64008;55.612;37.698;2023-04-06T00:29:01;5.35;;;2.30;;
75427;SDS011;64008;55.612;37.698;2023-04-06T00:31:28;9.40;;;1.83;;
75427;SDS011;64008;55.612;37.698;2023-04-06T00:33:53;4.63;;;2.13;;
75427;SDS011;64008;55.612;37.698;2023-04-06T00:36:19;4.65;;;1.65;;
75427;SDS011;64008;55.612;37.698;2023-04-06T00:38:45;6.03;;;1.85;;
75427;SDS011;64008;55.612;37.698;2023-04-06T00:41:10;4.07;;;1.70;;
75427;SDS011;64008;55.612;37.698;2023-04-06T00:43:36;4.10;;;1.98;;
75427;SDS011;64008;55.612;37.698;2023-04-06T00:46:02;6.07;;;2.28;;
75427;SDS011;64008;55.612;37.698;2023-04-06T00:48:27;4.60;;;2.00;;
75427;SDS011;64008;55.612;37.698;2023-04-06T00:50:55;4.95;;;2.10;;
75427;SDS011;64008;55.612;37.698;2023-04-06T00:53:20;4.65;;;2.05;;
75427;SDS011;64008;55.612;37.698;2023-04-06T00:55:46;4.60;;;2.08;;
75427;SDS011;64008;55.612;37.698;2023-04-06T00:58:12;5.68;;;2.10;;
75427;SDS011;64008;55.612;37.698;2023-04-06T01:00:37;3.80;;;2.10;;
75427;SDS011;64008;55.612;37.698;2023-04-06T01:03:03;4.20;;;1.88;;
75427;SDS011;64008;55.612;37.698;2023-04-06T01:05:32;4.40;;;1.90;;
75427;SDS011;64008;55.612;37.698;2023-04-06T01:07:59;4.82;;;2.03;;
75427;SDS011;64008;55.612;37.698;2023-04-06T01:10:25;4.68;;;1.95;;
75427;SDS011;64008;55.612;37.698;2023-04-06T01:12:52;4.10;;;1.95;;
75427;SDS011;64008;55.612;37.698;2023-04-06T01:15:18;4.93;;;2.00;;
75427;SDS011;64008;55.612;37.698;2023-04-06T01:17:44;4.00;;;1.92;;
75427;SDS011;64008;55.612;37.698;2023-04-06T01:20:10;4.60;;;1.67;;
75427;SDS011;64008;55.612;37.698;2023-04-06T01:22:35;6.53;;;1.98;;
75427;SDS011;64008;55.612;37.698;2023-04-06T01:25:01;5.20;;;2.30;;
75427;SDS011;64008;55.612;37.698;2023-04-06T01:27:27;5.35;;;2.13;;
75427;SDS011;64008;55.612;37.698;2023-04-06T01:29:53;3.78;;;1.85;;
75427;SDS011;64008;55.612;37.698;2023-04-06T01:32:18;5.55;;;1.92;;
75427;SDS011;64008;55.612;37.698;2023-04-06T01:34:44;5.90;;;2.40;;
75427;SDS011;64008;55.612;37.698;2023-04-06T01:37:10;4.72;;;1.83;;
75427;SDS011;64008;55.612;37.698;2023-04-06T01:39:35;4.20;;;1.88;;
75427;SDS011;64008;55.612;37.698;2023-04-06T01:42:01;5.32;;;2.08;;
75427;SDS011;64008;55.612;37.698;2023-04-06T01:44:26;3.92;;;1.73;;
75427;SDS011;64008;55.612;37.698;2023-04-06T01:46:52;5.55;;;2.00;;
75427;SDS011;64008;55.612;37.698;2023-04-06T01:49:18;4.55;;;2.10;;
75427;SDS011;64008;55.612;37.698;2023-04-06T01:51:43;4.28;;;2.10;;
75427;SDS011;64008;55.612;37.698;2023-04-06T01:54:08;6.55;;;2.00;;
75427;SDS011;64008;55.612;37.698;2023-04-06T01:56:34;4.28;;;2.00;;
75427;SDS011;64008;55.612;37.698;2023-04-06T01:59:00;6.18;;;1.83;;
75427;SDS011;64008;55.612;37.698;2023-04-06T02:01:25;10.95;;;2.33;;
75427;SDS011;64008;55.612;37.698;2023-04-06T02:03:51;8.40;;;2.10;;
75427;SDS011;64008;55.612;37.698;2023-04-06T02:06:16;8.65;;;1.77;;
75427;SDS011;64008;55.612;37.698;2023-04-06T02:08:42;6.90;;;1.95;;
75427;SDS011;64008;55.612;37.698;2023-04-06T02:11:07;5.43;;;2.00;;
75427;SDS011;64008;55.612;37.698;2023-04-06T02:13:33;6.10;;;1.95;;
75427;SDS011;64008;55.612;37.698;2023-04-06T02:15:58;4.80;;;1.85;;
75427;SDS011;64008;55.612;37.698;2023-04-06T02:18:24;5.28;;;1.95;;
75427;SDS011;64008;55.612;37.698;2023-04-06T02:20:50;5.60;;;2.03;;
75427;SDS011;64008;55.612;37.698;2023-04-06T02:23:16;4.88;;;2.03;;
75427;SDS011;64008;55.612;37.698;2023-04-06T02:25:41;4.28;;;1.95;;
75427;SDS011;64008;55.612;37.698;2023-04-06T02:28:07;4.30;;;2.03;;
75427;SDS011;64008;55.612;37.698;2023-04-06T02:30:32;8.10;;;2.20;;
75427;SDS011;64008;55.612;37.698;2023-04-06T02:32:59;5.13;;;2.15;;
75427;SDS011;64008;55.612;37.698;2023-04-06T02:35:25;5.57;;;2.15;;
75427;SDS011;64008;55.612;37.698;2023-04-06T02:37:52;4.35;;;2.03;;
75427;SDS011;64008;55.612;37.698;2023-04-06T02:40:18;5.47;;;1.73;;
75427;SDS011;64008;55.612;37.698;2023-04-06T02:42:43;6.60;;;2.22;;
75427;SDS011;64008;55.612;37.698;2023-04-06T02:45:09;4.93;;;1.80;;
75427;SDS011;64008;55.612;37.698;2023-04-06T02:47:35;7.75;;;2.10;;
75427;SDS011;64008;55.612;37.698;2023-04-06T02:50:00;5.82;;;2.40;;
75427;SDS011;64008;55.612;37.698;2023-04-06T02:52:26;4.75;;;2.10;;
75427;SDS011;64008;55.612;37.698;2023-04-06T02:54:52;4.35;;;2.00;;
75427;SDS011;64008;55.612;37.698;2023-04-06T02:57:17;5.38;;;2.30;;
75427;SDS011;64008;55.612;37.698;2023-04-06T02:59:43;7.03;;;2.25;;
75427;SDS011;64008;55.612;37.698;2023-04-06T03:02:08;7.78;;;2.45;;
75427;SDS011;64008;55.612;37.698;2023-04-06T03:04:34;5.07;;;2.30;;
75427;SDS011;64008;55.612;37.698;2023-04-06T03:07:00;4.60;;;2.13;;
75427;SDS011;64008;55.612;37.698;2023-04-06T03:09:25;8.98;;;2.58;;
75427;SDS011;64008;55.612;37.698;2023-04-06T03:11:51;5.78;;;2.33;;
75427;SDS011;64008;55.612;37.698;2023-04-06T03:14:16;7.22;;;2.35;;
75427;SDS011;64008;55.612;37.698;2023-04-06T03:16:46;4.80;;;2.03;;
75427;SDS011;64008;55.612;37.698;2023-04-06T03:19:12;4.75;;;2.05;;
75427;SDS011;64008;55.612;37.698;2023-04-06T03:21:38;5.70;;;2.08;;
75427;SDS011;64008;55.612;37.698;2023-04-06T03:24:04;5.28;;;2.10;;
75427;SDS011;64008;55.612;37.698;2023-04-06T03:26:30;5.53;;;1.95;;
75427;SDS011;64008;55.612;37.698;2023-04-06T03:28:55;6.50;;;2.45;;
75427;SDS011;64008;55.612;37.698;2023-04-06T03:31:21;4.47;;;1.98;;
75427;SDS011;64008;55.612;37.698;2023-04-06T03:33:46;5.07;;;1.95;;
75427;SDS011;64008;55.612;37.698;2023-04-06T03:36:12;5.22;;;2.30;;
75427;SDS011;64008;55.612;37.698;2023-04-06T03:38:37;6.05;;;2.10;;
75427;SDS011;64008;55.612;37.698;2023-04-06T03:41:03;6.70;;;2.70;;
75427;SDS011;64008;55.612;37.698;2023-04-06T03:43:28;5.88;;;2.20;;
75427;SDS011;64008;55.612;37.698;2023-04-06T03:45:54;6.53;;;2.33;;
75427;SDS011;64008;55.612;37.698;2023-04-06T03:48:20;6.45;;;3.10;;
75427;SDS011;64008;55.612;37.698;2023-04-06T03:50:45;7.38;;;2.90;;
75427;SDS011;64008;55.612;37.698;2023-04-06T03:53:11;6.28;;;2.70;;
75427;SDS011;64008;55.612;37.698;2023-04-06T03:55:36;5.55;;;2.47;;
75427;SDS011;64008;55.612;37.698;2023-04-06T03:58:02;5.90;;;2.40;;
75427;SDS011;64008;55.612;37.698;2023-04-06T04:00:27;6.65;;;2.42;;
75427;SDS011;64008;55.612;37.698;2023-04-06T04:02:53;4.72;;;2.20;;
75427;SDS011;64008;55.612;37.698;2023-04-06T04:05:18;5.63;;;2.10;;
75427;SDS011;64008;55.612;37.698;2023-04-06T04:07:44;6.65;;;2.72;;
75427;SDS011;64008;55.612;37.698;2023-04-06T04:10:10;8.75;;;2.80;;
75427;SDS011;64008;55.612;37.698;2023-04-06T04:12:35;8.43;;;2.63;;
75427;SDS011;64008;55.612;37.698;2023-04-06T04:15:01;6.28;;;2.35;;
75427;SDS011;64008;55.612;37.698;2023-04-06T04:17:28;7.32;;;2.65;;
75427;SDS011;64008;55.612;37.698;2023-04-06T04:19:53;6.43;;;2.60;;
75427;SDS011;64008;55.612;37.698;2023-04-06T04:22:19;6.30;;;2.50;;
75427;SDS011;64008;55.612;37.698;2023-04-06T04:24:44;15.45;;;2.53;;
75427;SDS011;64008;55.612;37.698;2023-04-06T04:27:10;27.70;;;3.13;;
75427;SDS011;64008;55.612;37.698;2023-04-06T04:29:35;17.35;;;2.65;;
75427;SDS011;64008;55.612;37.698;2023-04-06T04:32:01;18.38;;;3.42;;
75427;SDS011;64008;55.612;37.698;2023-04-06T04:34:26;8.68;;;2.35;;
75427;SDS011;64008;55.612;37.698;2023-04-06T04:36:52;7.43;;;2.90;;
75427;SDS011;64008;55.612;37.698;2023-04-06T04:39:18;7.07;;;2.67;;
75427;SDS011;64008;55.612;37.698;2023-04-06T04:41:43;6.65;;;2.10;;
75427;SDS011;64008;55.612;37.698;2023-04-06T04:44:09;5.88;;;2.22;;
75427;SDS011;64008;55.612;37.698;2023-04-06T04:46:35;8.15;;;2.00;;
75427;SDS011;64008;55.612;37.698;2023-04-06T04:49:00;5.95;;;2.15;;
75427;SDS011;64008;55.612;37.698;2023-04-06T04:51:26;8.27;;;2.35;;
75427;SDS011;64008;55.612;37.698;2023-04-06T04:53:51;8.88;;;2.53;;
75427;SDS011;64008;55.612;37.698;2023-04-06T04:56:17;11.52;;;2.30;;
75427;SDS011;64008;55.612;37.698;2023-04-06T04:58:42;7.18;;;2.20;;
75427;SDS011;64008;55.612;37.698;2023-04-06T05:01:08;9.63;;;2.42;;
75427;SDS011;64008;55.612;37.698;2023-04-06T05:03:33;9.80;;;2.40;;
75427;SDS011;64008;55.612;37.698;2023-04-06T05:06:00;15.32;;;4.07;;
75427;SDS011;64008;55.612;37.698;2023-04-06T05:08:26;16.52;;;4.68;;
75427;SDS011;64008;55.612;37.698;2023-04-06T05:10:52;31.92;;;10.38;;
75427;SDS011;64008;55.612;37.698;2023-04-06T05:13:17;15.02;;;5.40;;
75427;SDS011;64008;55.612;37.698;2023-04-06T05:15:43;18.50;;;5.90;;
75427;SDS011;64008;55.612;37.698;2023-04-06T05:18:09;14.70;;;5.03;;
75427;SDS011;64008;55.612;37.698;2023-04-06T05:20:35;9.93;;;3.70;;
75427;SDS011;64008;55.612;37.698;2023-04-06T05:23:01;11.07;;;3.88;;
75427;SDS011;64008;55.612;37.698;2023-04-06T05:25:27;7.40;;;2.90;;
75427;SDS011;64008;55.612;37.698;2023-04-06T05:27:53;7.20;;;2.70;;
75427;SDS011;64008;55.612;37.698;2023-04-06T05:30:18;10.07;;;2.92;;
75427;SDS011;64008;55.612;37.698;2023-04-06T05:32:44;12.77;;;3.00;;
75427;SDS011;64008;55.612;37.698;2023-04-06T05:35:10;8.40;;;2.78;;
75427;SDS011;64008;55.612;37.698;2023-04-06T05:37:37;10.05;;;2.38;;
75427;SDS011;64008;55.612;37.698;2023-04-06T05:40:03;8.70;;;2.45;;
75427;SDS011;64008;55.612;37.698;2023-04-06T05:42:36;9.25;;;2.38;;
75427;SDS011;64008;55.612;37.698;2023-04-06T05:45:03;9.73;;;3.10;;
75427;SDS011;64008;55.612;37.698;2023-04-06T05:47:30;8.18;;;2.90;;
75427;SDS011;64008;55.612;37.698;2023-04-06T05:49:55;9.82;;;2.75;;
75427;SDS011;64008;55.612;37.698;2023-04-06T05:52:21;7.28;;;2.47;;
75427;SDS011;64008;55.612;37.698;2023-04-06T05:54:46;8.43;;;2.50;;
75427;SDS011;64008;55.612;37.698;2023-04-06T05:57:12;6.20;;;2.30;;
75427;SDS011;64008;55.612;37.698;2023-04-06T05:59:38;8.30;;;2.22;;
75427;SDS011;64008;55.612;37.698;2023-04-06T06:02:03;5.60;;;2.20;;
75427;SDS011;64008;55.612;37.698;2023-04-06T06:04:29;14.85;;;6.35;;
75427;SDS011;64008;55.612;37.698;2023-04-06T06:09:21;17.25;;;4.82;;
75427;SDS011;64008;55.612;37.698;2023-04-06T06:11:46;50.03;;;14.10;;
75427;SDS011;64008;55.612;37.698;2023-04-06T06:14:12;43.22;;;13.00;;
75427;SDS011;64008;55.612;37.698;2023-04-06T06:16:37;46.33;;;15.10;;
75427;SDS011;64008;55.612;37.698;2023-04-06T06:19:03;42.65;;;14.63;;
75427;SDS011;64008;55.612;37.698;2023-04-06T06:23:56;27.00;;;7.63;;
75427;SDS011;64008;55.612;37.698;2023-04-06T06:26:22;27.73;;;7.97;;
75427;SDS011;64008;55.612;37.698;2023-04-06T06:28:47;20.40;;;6.25;;
75427;SDS011;64008;55.612;37.698;2023-04-06T06:31:13;19.45;;;5.47;;
75427;SDS011;64008;55.612;37.698;2023-04-06T06:33:38;15.70;;;5.70;;
75427;SDS011;64008;55.612;37.698;2023-04-06T06:36:04;20.73;;;4.90;;
75427;SDS011;64008;55.612;37.698;2023-04-06T06:38:30;18.60;;;4.60;;
75427;SDS011;64008;55.612;37.698;2023-04-06T06:40:55;18.80;;;4.80;;
75427;SDS011;64008;55.612;37.698;2023-04-06T06:43:21;11.95;;;3.67;;
75427;SDS011;64008;55.612;37.698;2023-04-06T06:45:46;15.10;;;4.35;;
75427;SDS011;64008;55.612;37.698;2023-04-06T06:48:12;9.13;;;3.33;;
75427;SDS011;64008;55.612;37.698;2023-04-06T06:50:37;13.20;;;3.40;;
75427;SDS011;64008;55.612;37.698;2023-04-06T06:53:03;9.25;;;3.53;;
75427;SDS011;64008;55.612;37.698;2023-04-06T06:55:28;11.68;;;3.58;;
75427;SDS011;64008;55.612;37.698;2023-04-06T06:57:54;9.60;;;3.15;;
75427;SDS011;64008;55.612;37.698;2023-04-06T07:00:20;8.88;;;2.95;;
75427;SDS011;64008;55.612;37.698;2023-04-06T07:02:46;7.78;;;3.35;;
75427;SDS011;64008;55.612;37.698;2023-04-06T07:05:12;9.05;;;2.70;;
75427;SDS011;64008;55.612;37.698;2023-04-06T07:07:38;10.70;;;3.03;;
75427;SDS011;64008;55.612;37.698;2023-04-06T07:10:04;7.85;;;2.53;;
75427;SDS011;64008;55.612;37.698;2023-04-06T07:12:30;7.35;;;2.55;;
75427;SDS011;64008;55.612;37.698;2023-04-06T07:14:55;7.25;;;2.78;;
75427;SDS011;64008;55.612;37.698;2023-04-06T07:17:21;7.28;;;2.50;;
75427;SDS011;64008;55.612;37.698;2023-04-06T07:19:46;10.63;;;2.70;;
75427;SDS011;64008;55.612;37.698;2023-04-06T07:22:12;8.07;;;2.15;;
75427;SDS011;64008;55.612;37.698;2023-04-06T07:24:38;6.30;;;2.63;;
75427;SDS011;64008;55.612;37.698;2023-04-06T07:27:03;8.85;;;2.50;;
75427;SDS011;64008;55.612;37.698;2023-04-06T07:29:29;7.85;;;2.50;;
75427;SDS011;64008;55.612;37.698;2023-04-06T07:31:54;7.28;;;2.35;;
75427;SDS011;64008;55.612;37.698;2023-04-06T07:34:20;10.05;;;2.55;;
75427;SDS011;64008;55.612;37.698;2023-04-06T07:36:46;8.60;;;2.22;;
75427;SDS011;64008;55.612;37.698;2023-04-06T07:39:12;7.18;;;2.28;;
75427;SDS011;64008;55.612;37.698;2023-04-06T07:41:37;6.95;;;2.33;;
75427;SDS011;64008;55.612;37.698;2023-04-06T07:44:03;9.90;;;2.47;;
75427;SDS011;64008;55.612;37.698;2023-04-06T07:46:29;5.53;;;2.25;;
75427;SDS011;64008;55.612;37.698;2023-04-06T07:48:55;5.53;;;1.95;;
75427;SDS011;64008;55.612;37.698;2023-04-06T07:51:22;8.45;;;2.40;;
75427;SDS011;64008;55.612;37.698;2023-04-06T07:53:47;7.03;;;2.40;;
75427;SDS011;64008;55.612;37.698;2023-04-06T07:56:13;5.47;;;2.10;;
75427;SDS011;64008;55.612;37.698;2023-04-06T07:58:40;7.88;;;2.40;;
75427;SDS011;64008;55.612;37.698;2023-04-06T08:01:06;7.25;;;2.15;;
75427;SDS011;64008;55.612;37.698;2023-04-06T08:03:33;5.78;;;2.00;;
75427;SDS011;64008;55.612;37.698;2023-04-06T08:05:59;5.63;;;2.00;;
75427;SDS011;64008;55.612;37.698;2023-04-06T08:08:25;7.43;;;3.17;;
75427;SDS011;64008;55.612;37.698;2023-04-06T08:10:50;5.80;;;2.03;;
75427;SDS011;64008;55.612;37.698;2023-04-06T08:13:16;8.13;;;2.53;;
75427;SDS011;64008;55.612;37.698;2023-04-06T08:15:42;5.43;;;2.10;;
75427;SDS011;64008;55.612;37.698;2023-04-06T08:18:08;7.28;;;2.00;;
75427;SDS011;64008;55.612;37.698;2023-04-06T08:20:34;7.85;;;2.10;;
75427;SDS011;64008;55.612;37.698;2023-04-06T08:22:59;8.40;;;2.83;;
75427;SDS011;64008;55.612;37.698;2023-04-06T08:25:25;4.68;;;2.20;;
75427;SDS011;64008;55.612;37.698;2023-04-06T08:27:51;4.70;;;1.80;;
75427;SDS011;64008;55.612;37.698;2023-04-06T08:30:16;5.57;;;1.83;;
75427;SDS011;64008;55.612;37.698;2023-04-06T08:32:44;6.47;;;1.80;;
75427;SDS011;64008;55.612;37.698;2023-04-06T08:35:10;5.78;;;1.88;;
75427;SDS011;64008;55.612;37.698;2023-04-06T08:37:35;6.10;;;1.90;;
75427;SDS011;64008;55.612;37.698;2023-04-06T08:40:01;6.15;;;2.83;;
75427;SDS011;64008;55.612;37.698;2023-04-06T08:42:28;5.13;;;1.85;;
75427;SDS011;64008;55.612;37.698;2023-04-06T08:44:56;10.95;;;1.90;;
75427;SDS011;64008;55.612;37.698;2023-04-06T08:47:22;5.03;;;1.73;;
75427;SDS011;64008;55.612;37.698;2023-04-06T08:49:48;5.10;;;1.60;;
75427;SDS011;64008;55.612;37.698;2023-04-06T08:52:15;6.45;;;1.58;;
75427;SDS011;64008;55.612;37.698;2023-04-06T08:54:43;6.55;;;1.60;;
75427;SDS011;64008;55.612;37.698;2023-04-06T08:57:09;4.88;;;1.80;;
75427;SDS011;64008;55.612;37.698;2023-04-06T08:59:35;5.05;;;1.85;;
75427;SDS011;64008;55.612;37.698;2023-04-06T09:02:03;5.80;;;1.50;;
75427;SDS011;64008;55.612;37.698;2023-04-06T09:04:30;10.60;;;2.20;;
75427;SDS011;64008;55.612;37.698;2023-04-06T09:06:58;8.82;;;1.85;;
75427;SDS011;64008;55.612;37.698;2023-04-06T09:09:24;9.10;;;1.70;;
75427;SDS011;64008;55.612;37.698;2023-04-06T09:11:50;5.63;;;1.60;;
75427;SDS011;64008;55.612;37.698;2023-04-06T09:14:17;7.25;;;1.90;;
75427;SDS011;64008;55.612;37.698;2023-04-06T09:16:58;6.43;;;2.25;;
75427;SDS011;64008;55.612;37.698;2023-04-06T09:19:23;6.22;;;1.80;;
75427;SDS011;64008;55.612;37.698;2023-04-06T09:21:49;5.85;;;1.75;;
75427;SDS011;64008;55.612;37.698;2023-04-06T09:24:14;8.63;;;1.70;;
75427;SDS011;64008;55.612;37.698;2023-04-06T09:26:46;4.68;;;1.92;;
75427;SDS011;64008;55.612;37.698;2023-04-06T09:29:21;6.30;;;1.75;;
75427;SDS011;64008;55.612;37.698;2023-04-06T09:31:49;6.63;;;1.77;;
75427;SDS011;64008;55.612;37.698;2023-04-06T09:34:21;7.95;;;1.60;;
75427;SDS011;64008;55.612;37.698;2023-04-06T09:36:50;9.90;;;2.65;;
75427;SDS011;64008;55.612;37.698;2023-04-06T09:39:19;7.82;;;2.08;;
75427;SDS011;64008;55.612;37.698;2023-04-06T09:41:49;11.00;;;2.00;;
75427;SDS011;64008;55.612;37.698;2023-04-06T09:44:15;6.75;;;1.80;;
75427;SDS011;64008;55.612;37.698;2023-04-06T09:46:41;4.70;;;1.63;;
75427;SDS011;64008;55.612;37.698;2023-04-06T09:49:08;7.82;;;1.98;;
75427;SDS011;64008;55.612;37.698;2023-04-06T09:54:03;4.72;;;2.00;;
75427;SDS011;64008;55.612;37.698;2023-04-06T09:56:31;7.22;;;1.70;;
75427;SDS011;64008;55.612;37.698;2023-04-06T09:59:05;3.97;;;1.70;;
75427;SDS011;64008;55.612;37.698;2023-04-06T10:01:34;6.25;;;1.75;;
75427;SDS011;64008;55.612;37.698;2023-04-06T10:06:39;10.45;;;2.03;;
75427;SDS011;64008;55.612;37.698;2023-04-06T10:09:06;4.22;;;1.80;;
75427;SDS011;64008;55.612;37.698;2023-04-06T10:11:33;4.75;;;1.50;;
75427;SDS011;64008;55.612;37.698;2023-04-06T10:13:59;6.68;;;1.60;;
75427;SDS011;64008;55.612;37.698;2023-04-06T10:16:25;5.97;;;1.67;;
75427;SDS011;64008;55.612;37.698;2023-04-06T10:18:56;6.63;;;1.83;;
75427;SDS011;64008;55.612;37.698;2023-04-06T10:21:38;5.15;;;2.05;;
75427;SDS011;64008;55.612;37.698;2023-04-06T10:24:07;6.38;;;2.08;;
75427;SDS011;64008;55.612;37.698;2023-04-06T10:26:37;3.83;;;1.40;;
75427;SDS011;64008;55.612;37.698;2023-04-06T10:29:03;5.65;;;1.67;;
75427;SDS011;64008;55.612;37.698;2023-04-06T10:31:29;4.78;;;1.88;;
75427;SDS011;64008;55.612;37.698;2023-04-06T10:33:55;5.88;;;2.30;;
75427;SDS011;64008;55.612;37.698;2023-04-06T10:36:22;6.60;;;2.00;;
75427;SDS011;64008;55.612;37.698;2023-04-06T10:38:54;7.03;;;1.88;;
75427;SDS011;64008;55.612;37.698;2023-04-06T10:41:24;8.73;;;1.55;;
75427;SDS011;64008;55.612;37.698;2023-04-06T10:44:17;6.45;;;1.60;;
75427;SDS011;64008;55.612;37.698;2023-04-06T10:46:53;5.72;;;1.80;;
75427;SDS011;64008;55.612;37.698;2023-04-06T10:49:20;5.00;;;1.73;;
75427;SDS011;64008;55.612;37.698;2023-04-06T10:51:50;6.97;;;1.90;;
75427;SDS011;64008;55.612;37.698;2023-04-06T10:54:17;5.68;;;1.67;;
75427;SDS011;64008;55.612;37.698;2023-04-06T10:56:44;6.75;;;1.88;;
75427;SDS011;64008;55.612;37.698;2023-04-06T10:59:09;5.03;;;1.45;;
75427;SDS011;64008;55.612;37.698;2023-04-06T11:04:01;5.45;;;1.75;;
75427;SDS011;64008;55.612;37.698;2023-04-06T11:06:28;4.82;;;1.70;;
75427;SDS011;64008;55.612;37.698;2023-04-06T11:08:56;5.18;;;1.50;;
75427;SDS011;64008;55.612;37.698;2023-04-06T11:11:23;4.03;;;1.30;;
75427;SDS011;64008;55.612;37.698;2023-04-06T11:13:58;5.90;;;1.77;;
75427;SDS011;64008;55.612;37.698;2023-04-06T11:16:25;5.47;;;1.63;;
75427;SDS011;64008;55.612;37.698;2023-04-06T11:18:53;5.82;;;1.77;;
75427;SDS011;64008;55.612;37.698;2023-04-06T11:24:05;5.05;;;1.55;;
75427;SDS011;64008;55.612;37.698;2023-04-06T11:26:37;7.57;;;1.73;;
75427;SDS011;64008;55.612;37.698;2023-04-06T11:29:06;7.43;;;2.15;;
75427;SDS011;64008;55.612;37.698;2023-04-06T11:31:37;9.40;;;1.80;;
75427;SDS011;64008;55.612;37.698;2023-04-06T11:34:10;4.57;;;1.60;;
75427;SDS011;64008;55.612;37.698;2023-04-06T11:36:41;4.10;;;1.35;;
75427;SDS011;64008;55.612;37.698;2023-04-06T11:39:08;4.68;;;1.67;;
75427;SDS011;64008;55.612;37.698;2023-04-06T11:41:34;4.68;;;1.52;;
75427;SDS011;64008;55.612;37.698;2023-04-06T11:44:01;4.20;;;1.40;;
75427;SDS011;64008;55.612;37.698;2023-04-06T11:46:30;4.85;;;1.40;;
75427;SDS011;64008;55.612;37.698;2023-04-06T11:48:59;3.97;;;1.58;;
75427;SDS011;64008;55.612;37.698;2023-04-06T11:51:25;3.95;;;1.60;;
75427;SDS011;64008;55.612;37.698;2023-04-06T11:53:54;6.95;;;1.67;;
75427;SDS011;64008;55.612;37.698;2023-04-06T11:56:24;5.25;;;1.67;;
75427;SDS011;64008;55.612;37.698;2023-04-06T11:58:51;5.35;;;1.70;;
75427;SDS011;64008;55.612;37.698;2023-04-06T12:01:17;4.15;;;1.40;;
75427;SDS011;64008;55.612;37.698;2023-04-06T12:03:43;4.45;;;1.33;;
75427;SDS011;64008;55.612;37.698;2023-04-06T12:06:09;3.70;;;1.38;;
75427;SDS011;64008;55.612;37.698;2023-04-06T12:08:34;5.60;;;1.58;;
75427;SDS011;64008;55.612;37.698;2023-04-06T12:11:00;4.18;;;1.63;;
75427;SDS011;64008;55.612;37.698;2023-04-06T12:13:25;3.78;;;1.42;;
75427;SDS011;64008;55.612;37.698;2023-04-06T12:15:52;5.65;;;1.60;;
75427;SDS011;64008;55.612;37.698;2023-04-06T12:18:17;5.95;;;1.38;;
75427;SDS011;64008;55.612;37.698;2023-04-06T12:20:43;4.47;;;1.35;;
75427;SDS011;64008;55.612;37.698;2023-04-06T12:23:09;7.35;;;1.38;;
75427;SDS011;64008;55.612;37.698;2023-04-06T12:25:34;4.32;;;1.45;;
75427;SDS011;64008;55.612;37.698;2023-04-06T12:28:00;5.07;;;1.50;;
75427;SDS011;64008;55.612;37.698;2023-04-06T12:30:26;5.40;;;1.63;;
75427;SDS011;64008;55.612;37.698;2023-04-06T12:32:51;3.05;;;1.30;;
75427;SDS011;64008;55.612;37.698;2023-04-06T12:35:17;4.78;;;1.40;;
75427;SDS011;64008;55.612;37.698;2023-04-06T12:37:42;5.82;;;1.63;;
75427;SDS011;64008;55.612;37.698;2023-04-06T12:40:08;5.57;;;1.60;;
75427;SDS011;64008;55.612;37.698;2023-04-06T12:42:35;4.47;;;1.30;;
75427;SDS011;64008;55.612;37.698;2023-04-06T12:45:01;4.18;;;1.30;;
75427;SDS011;64008;55.612;37.698;2023-04-06T12:47:27;5.30;;;1.50;;
75427;SDS011;64008;55.612;37.698;2023-04-06T12:49:53;6.00;;;2.10;;
75427;SDS011;64008;55.612;37.698;2023-04-06T12:52:19;4.05;;;1.48;;
75427;SDS011;64008;55.612;37.698;2023-04-06T12:54:45;6.53;;;1.63;;
75427;SDS011;64008;55.612;37.698;2023-04-06T12:57:12;3.15;;;1.27;;
75427;SDS011;64008;55.612;37.698;2023-04-06T12:59:37;4.95;;;1.48;;
75427;SDS011;64008;55.612;37.698;2023-04-06T13:02:03;4.95;;;1.67;;
75427;SDS011;64008;55.612;37.698;2023-04-06T13:04:29;5.65;;;1.52;;
75427;SDS011;64008;55.612;37.698;2023-04-06T13:06:55;4.32;;;1.77;;
75427;SDS011;64008;55.612;37.698;2023-04-06T13:09:21;5.10;;;1.58;;
75427;SDS011;64008;55.612;37.698;2023-04-06T13:11:46;4.97;;;1.45;;
75427;SDS011;64008;55.612;37.698;2023-04-06T13:14:12;5.97;;;1.48;;
75427;SDS011;64008;55.612;37.698;2023-04-06T13:16:37;5.38;;;1.40;;
75427;SDS011;64008;55.612;37.698;2023-04-06T13:19:03;8.68;;;1.75;;
75427;SDS011;64008;55.612;37.698;2023-04-06T13:21:28;6.53;;;1.50;;
75427;SDS011;64008;55.612;37.698;2023-04-06T13:23:55;4.78;;;1.23;;
75427;SDS011;64008;55.612;37.698;2023-04-06T13:26:20;4.45;;;1.52;;
75427;SDS011;64008;55.612;37.698;2023-04-06T13:28:46;4.38;;;1.45;;
75427;SDS011;64008;55.612;37.698;2023-04-06T13:31:12;4.38;;;1.40;;
75427;SDS011;64008;55.612;37.698;2023-04-06T13:33:38;4.88;;;1.60;;
75427;SDS011;64008;55.612;37.698;2023-04-06T13:36:05;4.68;;;1.50;;
75427;SDS011;64008;55.612;37.698;2023-04-06T13:38:32;4.65;;;1.38;;
75427;SDS011;64008;55.612;37.698;2023-04-06T13:40:59;4.20;;;1.70;;
75427;SDS011;64008;55.612;37.698;2023-04-06T13:45:52;4.07;;;1.30;;
75427;SDS011;64008;55.612;37.698;2023-04-06T13:48:20;4.90;;;1.48;;
75427;SDS011;64008;55.612;37.698;2023-04-06T13:50:45;4.80;;;1.40;;
75427;SDS011;64008;55.612;37.698;2023-04-06T13:53:11;3.78;;;1.30;;
75427;SDS011;64008;55.612;37.698;2023-04-06T13:55:37;3.85;;;1.42;;
75427;SDS011;64008;55.612;37.698;2023-04-06T13:58:02;4.78;;;1.30;;
75427;SDS011;64008;55.612;37.698;2023-04-06T14:00:28;4.80;;;1.15;;
75427;SDS011;64008;55.612;37.698;2023-04-06T14:02:53;4.63;;;1.33;;
75427;SDS011;64008;55.612;37.698;2023-04-06T14:05:20;4.38;;;1.55;;
75427;SDS011;64008;55.612;37.698;2023-04-06T14:07:46;4.65;;;1.27;;
75427;SDS011;64008;55.612;37.698;2023-04-06T14:10:11;5.50;;;1.30;;
75427;SDS011;64008;55.612;37.698;2023-04-06T14:12:42;3.45;;;1.20;;
75427;SDS011;64008;55.612;37.698;2023-04-06T14:15:11;5.05;;;1.50;;
75427;SDS011;64008;55.612;37.698;2023-04-06T14:17:37;4.28;;;1.17;;
75427;SDS011;64008;55.612;37.698;2023-04-06T14:20:04;3.67;;;1.25;;
75427;SDS011;64008;55.612;37.698;2023-04-06T14:22:31;3.50;;;1.10;;
75427;SDS011;64008;55.612;37.698;2023-04-06T14:24:56;5.63;;;1.13;;
75427;SDS011;64008;55.612;37.698;2023-04-06T14:27:22;4.60;;;1.38;;
75427;SDS011;64008;55.612;37.698;2023-04-06T14:29:48;6.22;;;1.50;;
75427;SDS011;64008;55.612;37.698;2023-04-06T14:32:14;3.67;;;1.58;;
75427;SDS011;64008;55.612;37.698;2023-04-06T14:34:40;5.68;;;1.50;;
75427;SDS011;64008;55.612;37.698;2023-04-06T14:37:05;4.75;;;1.33;;
75427;SDS011;64008;55.612;37.698;2023-04-06T14:39:31;5.70;;;1.50;;
75427;SDS011;64008;55.612;37.698;2023-04-06T14:41:56;3.72;;;1.30;;
75427;SDS011;64008;55.612;37.698;2023-04-06T14:44:22;3.13;;;1.50;;
75427;SDS011;64008;55.612;37.698;2023-04-06T14:46:47;4.35;;;1.30;;